createdAt,value
2018-09-30T00:01:05.343Z,95736.8
2018-09-30T00:06:01.985Z,95735.5
2018-09-30T00:10:58.016Z,95733.4
2018-09-30T00:15:54.439Z,95738.7
2018-09-30T00:20:50.612Z,95745.3
2018-09-30T00:25:47.021Z,95748.4
2018-09-30T00:30:43.501Z,95747.4
2018-09-30T00:35:39.853Z,95745.7
2018-09-30T00:40:36.323Z,95713.3
2018-09-30T00:45:32.541Z,95750.4
2018-09-30T00:50:28.722Z,95760.5
2018-09-30T00:55:25.677Z,95648.6
2018-09-30T01:00:21.823Z,95765.2
2018-09-30T01:05:18.485Z,95778.7
2018-09-30T01:10:14.708Z,95769
2018-09-30T01:15:10.698Z,95769.9
2018-09-30T01:20:06.897Z,95778.7
2018-09-30T01:25:03.397Z,95779.4
2018-09-30T01:29:59.833Z,95782.9
2018-09-30T01:34:56.020Z,95786.4
2018-09-30T01:39:52.006Z,95786.3
2018-09-30T01:44:48.098Z,95781.6
2018-09-30T01:49:44.147Z,95787.9
2018-09-30T01:54:40.452Z,95782.8
2018-09-30T01:59:36.794Z,95672.5
2018-09-30T02:04:33.524Z,95793.4
2018-09-30T02:09:29.937Z,95790.3
2018-09-30T02:14:26.364Z,95787.4
2018-09-30T02:19:22.456Z,95796.3
2018-09-30T02:24:18.454Z,95791.6
2018-09-30T02:29:14.691Z,95789.8
2018-09-30T02:34:11.221Z,95785.5
2018-09-30T02:39:07.247Z,95788.5
2018-09-30T02:44:03.667Z,95792.6
2018-09-30T02:48:59.810Z,95798.8
2018-09-30T02:53:56.030Z,95803.5
2018-09-30T02:58:52.626Z,95803.8
2018-09-30T03:03:49.788Z,95699.1
2018-09-30T03:08:45.725Z,95838.5
2018-09-30T03:13:42.063Z,95821.9
2018-09-30T03:18:38.233Z,95817.4
2018-09-30T03:23:34.851Z,95820.2
2018-09-30T03:28:30.827Z,95819.2
2018-09-30T03:33:26.913Z,94887.7
2018-09-30T03:38:23.055Z,95829.1
2018-09-30T03:43:19.248Z,95832.1
2018-09-30T03:48:15.088Z,95831.3
2018-09-30T03:53:11.220Z,95832.8
2018-09-30T03:58:07.623Z,95830.2
2018-09-30T04:03:04.460Z,95839.3
2018-09-30T04:08:00.765Z,95843.1
2018-09-30T04:12:57.365Z,95849.2
2018-09-30T04:17:53.655Z,95849
2018-09-30T04:22:49.980Z,95856.1
2018-09-30T04:27:46.555Z,95861.4
2018-09-30T04:32:42.548Z,95871.2
2018-09-30T04:37:38.727Z,95868.3
2018-09-30T04:42:34.995Z,95879.5
2018-09-30T04:47:31.534Z,95844.2
2018-09-30T04:52:28.141Z,95884.2
2018-09-30T04:57:24.527Z,95879.6
2018-09-30T05:02:20.716Z,95615.8
2018-09-30T05:07:16.773Z,95819.7
2018-09-30T05:12:12.769Z,95759
2018-09-30T05:17:08.578Z,95935.2
2018-09-30T05:22:04.855Z,95887.7
2018-09-30T05:27:00.728Z,95889.2
2018-09-30T05:31:57.004Z,95767.9
2018-09-30T05:36:53.397Z,95896.2
2018-09-30T05:41:49.878Z,95981.9
2018-09-30T05:46:46.161Z,95781.3
2018-09-30T05:51:42.292Z,95911.9
2018-09-30T05:56:38.609Z,95865
2018-09-30T06:01:34.891Z,95863.3
2018-09-30T06:06:31.111Z,96081.2
2018-09-30T06:11:27.891Z,95908.4
2018-09-30T06:16:23.420Z,95908.8
2018-09-30T06:21:19.695Z,95910.2
2018-09-30T06:26:16.090Z,95914.4
2018-09-30T06:31:12.721Z,95922.3
2018-09-30T06:36:08.958Z,95813.5
2018-09-30T06:41:05.577Z,95925.4
2018-09-30T06:46:02.064Z,95931.6
2018-09-30T06:50:58.328Z,95849.9
2018-09-30T06:55:54.613Z,95935.7
2018-09-30T07:00:51.076Z,95935.8
2018-09-30T07:05:46.992Z,95938.7
2018-09-30T07:10:44.464Z,95938.7
2018-09-30T07:15:40.132Z,95934.2
2018-09-30T07:20:36.536Z,95936.4
2018-09-30T07:25:32.844Z,95942.6
2018-09-30T07:30:29.075Z,95944.4
2018-09-30T07:35:25.368Z,95943.3
2018-09-30T07:40:21.492Z,95956
2018-09-30T07:45:17.158Z,95949.9
2018-09-30T07:50:13.855Z,95958.5
2018-09-30T07:55:09.686Z,95833
2018-09-30T08:00:07.610Z,95965.7
2018-09-30T08:05:03.786Z,95964.9
2018-09-30T08:10:00.001Z,95961.9
2018-09-30T08:14:56.285Z,95966.4
2018-09-30T08:19:52.395Z,95959.7
2018-09-30T08:24:49.363Z,95856.2
2018-09-30T08:29:46.852Z,95847.4
2018-09-30T08:34:43.617Z,95856.4
2018-09-30T08:39:39.513Z,95967.8
2018-09-30T08:44:35.943Z,95963.2
2018-09-30T08:49:33.097Z,95958.9
2018-09-30T08:59:40.366Z,95838.7
2018-09-30T09:04:36.725Z,95956.1
2018-09-30T09:09:32.974Z,95948.1
2018-09-30T09:14:28.648Z,95832.9
2018-09-30T09:19:24.908Z,95936.2
2018-09-30T09:24:20.983Z,95935.3
2018-09-30T09:29:17.443Z,95939.3
2018-09-30T09:34:13.677Z,95931.9
2018-09-30T09:39:09.920Z,95826.4
2018-09-30T09:44:06.371Z,95827
2018-09-30T09:49:02.727Z,95927
2018-09-30T09:53:59.314Z,95925
2018-09-30T09:58:56.161Z,95915.5
2018-09-30T10:03:52.149Z,95809.7
2018-09-30T10:08:48.471Z,95913.3
2018-09-30T10:13:44.896Z,95797.2
2018-09-30T10:18:41.331Z,95912
2018-09-30T10:23:37.780Z,95913.7
2018-09-30T10:28:34.717Z,95909.5
2018-09-30T10:33:30.963Z,95908.9
2018-09-30T10:38:27.333Z,95905.9
2018-09-30T10:43:23.831Z,95909.1
2018-09-30T10:48:20.089Z,95904.2
2018-09-30T10:53:16.581Z,95900.7
2018-09-30T10:58:13.776Z,95782.3
2018-09-30T11:03:09.818Z,95894.5
2018-09-30T11:08:06.103Z,95786
2018-09-30T11:13:02.355Z,95882.4
2018-09-30T11:17:58.523Z,95871.6
2018-09-30T11:22:55.533Z,95877.2
2018-09-30T11:27:52.050Z,95863.4
2018-09-30T11:32:48.146Z,95861.3
2018-09-30T11:37:44.454Z,95858.4
2018-09-30T11:42:40.861Z,95858.6
2018-09-30T11:47:36.529Z,95748.2
2018-09-30T11:52:33.135Z,95852.9
2018-09-30T11:57:29.018Z,95742.4
2018-09-30T12:02:25.639Z,95845.5
2018-09-30T12:07:22.148Z,95846.8
2018-09-30T12:12:18.233Z,95730.9
2018-09-30T12:17:14.520Z,95845.1
2018-09-30T12:22:11.045Z,95836
2018-09-30T12:27:07.975Z,95717.8
2018-09-30T12:32:04.536Z,95833.4
2018-09-30T12:37:00.779Z,95822.1
2018-09-30T12:41:57.269Z,95708.6
2018-09-30T12:46:53.544Z,95813
2018-09-30T12:51:49.714Z,95797.7
2018-09-30T12:56:46.644Z,95800
2018-09-30T13:01:42.860Z,95677.1
2018-09-30T13:06:39.524Z,95789.1
2018-09-30T13:11:35.865Z,95788.5
2018-09-30T13:16:32.230Z,95789.9
2018-09-30T13:21:28.543Z,95780.9
2018-09-30T13:26:24.786Z,95671.2
2018-09-30T13:31:21.123Z,95782
2018-09-30T13:36:17.665Z,95782.7
2018-09-30T13:41:14.284Z,95784.5
2018-09-30T13:46:11.024Z,95775.2
2018-09-30T13:51:07.341Z,95773.4
2018-09-30T13:56:03.843Z,95775.3
2018-09-30T14:01:00.317Z,95778.3
2018-09-30T14:05:57.336Z,95775
2018-09-30T14:10:52.948Z,95778.6
2018-09-30T14:15:49.338Z,95781.3
2018-09-30T14:20:45.627Z,95783.4
2018-09-30T14:25:41.921Z,95780.7
2018-09-30T14:30:38.268Z,95664.2
2018-09-30T14:35:34.553Z,95777.4
2018-09-30T14:40:30.854Z,95778.4
2018-09-30T14:45:27.326Z,95776.9
2018-09-30T14:50:23.859Z,95781
2018-09-30T14:55:20.090Z,95673.3
2018-09-30T15:00:16.329Z,95792.7
2018-09-30T15:05:12.772Z,95791
2018-09-30T15:10:09.538Z,95795.3
2018-09-30T15:15:07.025Z,95787.6
2018-09-30T15:20:03.202Z,95784.7
2018-09-30T15:24:59.256Z,95776.3
2018-09-30T15:29:55.202Z,95764.2
2018-09-30T15:34:51.645Z,95772.3
2018-09-30T15:39:47.902Z,95767.6
2018-09-30T15:44:44.430Z,95770.8
2018-09-30T15:49:40.653Z,95773
2018-09-30T15:54:37.488Z,95652.8
2018-09-30T15:59:33.707Z,95776.2
2018-09-30T16:04:29.988Z,95773.6
2018-09-30T16:09:26.145Z,95772.3
2018-09-30T16:14:22.430Z,95768.4
2018-09-30T16:19:18.877Z,95765.8
2018-09-30T16:24:15.430Z,95768
2018-09-30T16:29:11.585Z,95769.5
2018-09-30T16:34:07.473Z,95770.1
2018-09-30T16:39:03.873Z,95655.2
2018-09-30T16:44:00.153Z,95655.5
2018-09-30T16:48:56.463Z,95778.9
2018-09-30T16:53:52.838Z,95674.9
2018-09-30T16:58:49.033Z,95656.1
2018-09-30T17:03:45.802Z,95738
2018-09-30T17:08:41.937Z,95777
2018-09-30T17:13:38.148Z,95780
2018-09-30T17:18:34.336Z,95789.9
2018-09-30T17:23:30.557Z,95778.7
2018-09-30T17:28:26.614Z,95673.5
2018-09-30T17:33:22.699Z,95790
2018-09-30T17:38:19.000Z,95785.9
2018-09-30T17:43:15.308Z,95789.8
2018-09-30T17:48:11.714Z,95634.1
2018-09-30T17:53:07.913Z,95785.1
2018-09-30T17:58:04.346Z,95788.6
2018-09-30T18:03:00.483Z,95791.6
2018-09-30T18:07:56.813Z,95792.6
2018-09-30T18:12:53.197Z,95787.6
2018-09-30T18:17:49.528Z,95791.8
2018-09-30T18:22:45.842Z,95676.1
2018-09-30T18:27:42.148Z,95790.1
2018-09-30T18:32:38.664Z,95790.5
2018-09-30T18:37:34.966Z,95791.8
2018-09-30T18:42:31.070Z,95791.8
2018-09-30T18:47:28.647Z,95786.6
2018-09-30T18:52:24.825Z,95789.3
2018-09-30T18:57:21.036Z,95779.8
2018-09-30T19:02:16.583Z,95779.2
2018-09-30T19:07:13.010Z,95768.7
2018-09-30T19:12:09.530Z,95765.7
2018-09-30T19:17:05.873Z,95766.6
2018-09-30T19:22:02.052Z,95761
2018-09-30T19:26:58.717Z,95753.8
2018-09-30T19:31:54.938Z,95762.4
2018-09-30T19:36:51.415Z,95754.7
2018-09-30T19:41:47.712Z,95754.8
2018-09-30T19:46:43.859Z,95749
2018-09-30T19:51:40.414Z,95742.3
2018-09-30T19:56:36.862Z,95743.9
2018-09-30T20:01:33.459Z,95613.5
2018-09-30T20:06:29.379Z,95729.1
2018-09-30T20:11:25.510Z,95731.9
2018-09-30T20:16:21.775Z,95728.9
2018-09-30T20:21:18.521Z,95726
2018-09-30T20:26:14.500Z,95723.8
2018-09-30T20:31:10.487Z,95718
2018-09-30T20:36:06.728Z,95712
2018-09-30T20:41:02.801Z,95707.4
2018-09-30T20:45:59.314Z,95704.8
2018-09-30T20:50:55.806Z,95702.4
2018-09-30T20:55:51.888Z,95695.7
2018-09-30T21:00:47.974Z,95696.7
2018-09-30T21:05:44.220Z,95693.6
2018-09-30T21:10:40.671Z,95562.8
2018-09-30T21:15:36.848Z,95685.8
2018-09-30T21:20:33.240Z,95679.4
2018-09-30T21:25:29.213Z,95673.2
2018-09-30T21:30:25.572Z,95663.4
2018-09-30T21:35:21.916Z,95659.8
2018-09-30T21:40:18.366Z,95647.3
2018-09-30T21:45:14.741Z,95645.3
2018-09-30T21:50:11.296Z,95592.3
2018-09-30T21:55:07.865Z,95634.6
2018-09-30T22:00:04.573Z,95679.5
2018-09-30T22:05:00.629Z,95628
2018-09-30T22:09:56.880Z,95628.3
2018-09-30T22:14:53.212Z,95617.6
2018-09-30T22:19:49.620Z,95616.7
2018-09-30T22:24:46.113Z,95606.8
2018-09-30T22:29:42.431Z,95604
2018-09-30T22:34:38.747Z,95595.1
2018-09-30T22:39:35.613Z,95484.9
2018-09-30T22:44:31.741Z,95597.7
2018-09-30T22:49:28.228Z,95595.7
2018-09-30T22:54:24.808Z,95599.7
2018-09-30T22:59:21.727Z,95593.3
2018-09-30T23:04:18.023Z,95590.3
2018-09-30T23:09:14.090Z,95509.2
2018-09-30T23:14:10.351Z,95582.6
2018-09-30T23:19:05.606Z,95574.8
2018-09-30T23:24:01.973Z,95572.3
2018-09-30T23:28:57.922Z,95570.6
2018-09-30T23:33:59.646Z,95225.6
2018-09-30T23:38:54.146Z,95563.7
2018-09-30T23:43:50.385Z,95561.2
2018-09-30T23:48:46.698Z,95556
2018-09-30T23:53:42.871Z,95552.1
2018-09-30T23:58:39.565Z,95539.9
